createdAt,value
2022-10-10T00:01:24.926Z,6.89
2022-10-10T00:03:51.906Z,6.90
2022-10-10T00:06:18.700Z,6.90
2022-10-10T00:08:46.106Z,6.90
2022-10-10T00:11:14.762Z,6.90
2022-10-10T00:13:42.170Z,6.89
2022-10-10T00:16:10.246Z,6.89
2022-10-10T00:18:37.637Z,6.92
2022-10-10T00:21:05.057Z,6.94
2022-10-10T00:23:31.853Z,6.94
2022-10-10T00:25:59.300Z,6.94
2022-10-10T00:28:26.426Z,6.94
2022-10-10T00:30:53.460Z,6.93
2022-10-10T00:33:20.394Z,6.92
2022-10-10T00:35:48.319Z,6.93
2022-10-10T00:38:15.162Z,6.92
2022-10-10T00:40:50.767Z,6.91
2022-10-10T00:43:18.632Z,6.91
2022-10-10T00:45:47.247Z,6.90
2022-10-10T00:48:22.751Z,6.88
2022-10-10T00:51:12.443Z,6.88
2022-10-10T00:54:02.310Z,6.88
2022-10-10T00:56:36.246Z,6.87
2022-10-10T00:59:06.150Z,6.87
2022-10-10T01:01:33.147Z,6.85
2022-10-10T01:04:01.927Z,6.83
2022-10-10T01:06:29.587Z,6.81
2022-10-10T01:08:57.314Z,6.81
2022-10-10T01:11:32.972Z,6.80
2022-10-10T01:14:18.995Z,6.79
2022-10-10T01:16:54.458Z,6.78
2022-10-10T01:20:03.847Z,6.75
2022-10-10T01:22:49.893Z,6.74
2022-10-10T01:25:29.276Z,6.72
2022-10-10T01:28:03.806Z,6.72
2022-10-10T01:30:31.262Z,6.69
2022-10-10T01:33:22.049Z,6.67
2022-10-10T01:36:20.958Z,6.66
2022-10-10T01:39:01.663Z,6.64
2022-10-10T01:41:36.804Z,6.62
2022-10-10T01:44:03.664Z,6.58
2022-10-10T01:46:32.522Z,6.55
2022-10-10T01:49:00.738Z,6.52
2022-10-10T01:52:01.662Z,6.50
2022-10-10T01:54:45.755Z,6.50
2022-10-10T01:57:47.616Z,6.49
2022-10-10T02:00:17.646Z,6.49
2022-10-10T02:02:56.208Z,6.47
2022-10-10T02:05:36.522Z,6.46
2022-10-10T02:08:05.387Z,6.45
2022-10-10T02:10:35.782Z,6.44
2022-10-10T02:13:05.208Z,6.43
2022-10-10T02:15:43.092Z,6.44
2022-10-10T02:18:14.901Z,6.45
2022-10-10T02:20:43.821Z,6.44
2022-10-10T02:23:16.019Z,6.43
2022-10-10T02:25:47.681Z,6.44
2022-10-10T02:28:57.443Z,6.43
2022-10-10T02:31:37.488Z,6.44
2022-10-10T02:34:27.403Z,6.44
2022-10-10T02:37:01.585Z,6.43
2022-10-10T02:39:33.476Z,6.44
2022-10-10T02:42:00.293Z,6.45
2022-10-10T02:44:28.003Z,6.45
2022-10-10T02:46:54.837Z,6.45
2022-10-10T02:49:28.571Z,6.45
2022-10-10T02:51:55.333Z,6.45
2022-10-10T02:54:22.134Z,6.45
2022-10-10T02:56:48.919Z,6.46
2022-10-10T02:59:15.770Z,6.45
2022-10-10T03:01:42.501Z,6.46
2022-10-10T03:04:09.341Z,6.46
2022-10-10T03:06:36.440Z,6.45
2022-10-10T03:09:04.519Z,6.44
2022-10-10T03:11:31.421Z,6.45
2022-10-10T03:13:58.193Z,6.45
2022-10-10T03:16:25.011Z,6.44
2022-10-10T03:18:52.604Z,6.45
2022-10-10T03:21:19.500Z,6.45
2022-10-10T03:23:46.255Z,6.45
2022-10-10T03:26:13.400Z,6.45
2022-10-10T03:28:40.296Z,6.45
2022-10-10T03:31:07.110Z,6.45
2022-10-10T03:33:35.120Z,6.46
2022-10-10T03:36:02.011Z,6.46
2022-10-10T03:38:28.816Z,6.46
2022-10-10T03:40:55.644Z,6.45
2022-10-10T03:43:22.418Z,6.45
2022-10-10T03:45:49.487Z,6.46
2022-10-10T03:48:16.774Z,6.46
2022-10-10T03:50:43.682Z,6.45
2022-10-10T03:53:12.573Z,6.44
2022-10-10T03:55:40.902Z,6.39
2022-10-10T03:58:08.528Z,6.40
2022-10-10T04:00:35.690Z,6.39
2022-10-10T04:03:06.422Z,6.37
2022-10-10T04:05:36.091Z,6.37
2022-10-10T04:08:03.475Z,6.35
2022-10-10T04:10:30.313Z,6.35
2022-10-10T04:12:57.415Z,6.33
2022-10-10T04:15:25.530Z,6.31
2022-10-10T04:17:52.199Z,6.30
2022-10-10T04:20:19.351Z,6.27
2022-10-10T04:22:46.102Z,6.28
2022-10-10T04:25:12.858Z,6.27
2022-10-10T04:27:39.670Z,6.25
2022-10-10T04:30:07.517Z,6.24
2022-10-10T04:32:34.302Z,6.24
2022-10-10T04:35:01.064Z,6.24
2022-10-10T04:37:28.003Z,6.22
2022-10-10T04:39:55.403Z,6.22
2022-10-10T04:42:22.603Z,6.22
2022-10-10T04:44:49.447Z,6.20
2022-10-10T04:47:16.196Z,6.20
2022-10-10T04:49:42.964Z,6.19
2022-10-10T04:52:10.393Z,6.21
2022-10-10T04:54:37.692Z,6.17
2022-10-10T04:57:05.008Z,6.15
2022-10-10T04:59:31.848Z,6.12
2022-10-10T05:02:01.676Z,6.12
2022-10-10T05:04:28.914Z,6.11
2022-10-10T05:06:55.696Z,6.10
2022-10-10T05:09:22.496Z,6.09
2022-10-10T05:11:49.299Z,6.07
2022-10-10T05:14:15.952Z,6.07
2022-10-10T05:16:42.770Z,6.07
2022-10-10T05:19:09.495Z,6.06
2022-10-10T05:21:36.265Z,6.05
2022-10-10T05:24:03.811Z,6.06
2022-10-10T05:26:30.664Z,6.06
2022-10-10T05:28:57.601Z,6.08
2022-10-10T05:31:24.477Z,6.08
2022-10-10T05:33:51.335Z,6.08
2022-10-10T05:36:18.153Z,6.09
2022-10-10T05:38:44.926Z,6.10
2022-10-10T05:41:12.782Z,6.10
2022-10-10T05:43:39.732Z,6.09
2022-10-10T05:46:06.785Z,6.11
2022-10-10T05:48:33.954Z,6.11
2022-10-10T05:51:01.642Z,6.12
2022-10-10T05:53:30.348Z,6.11
2022-10-10T05:55:57.987Z,6.11
2022-10-10T05:58:26.597Z,6.11
2022-10-10T06:00:53.822Z,6.09
2022-10-10T06:03:20.605Z,6.11
2022-10-10T06:05:50.559Z,6.12
2022-10-10T06:08:17.287Z,6.13
2022-10-10T06:10:45.811Z,6.15
2022-10-10T06:13:14.788Z,6.17
2022-10-10T06:15:42.254Z,6.20
2022-10-10T06:18:09.467Z,6.22
2022-10-10T06:20:41.009Z,6.23
2022-10-10T06:23:08.929Z,6.24
2022-10-10T06:25:41.473Z,6.27
2022-10-10T06:28:10.682Z,6.29
2022-10-10T06:30:44.597Z,6.33
2022-10-10T06:33:12.826Z,6.36
2022-10-10T06:35:42.050Z,6.41
2022-10-10T06:38:09.602Z,6.48
2022-10-10T06:40:36.308Z,6.57
2022-10-10T06:43:04.781Z,6.64
2022-10-10T06:45:31.666Z,6.70
2022-10-10T06:47:58.481Z,6.74
2022-10-10T06:50:25.400Z,6.79
2022-10-10T06:52:52.547Z,6.87
2022-10-10T06:55:19.549Z,6.96
2022-10-10T06:57:46.426Z,7.08
2022-10-10T07:00:14.628Z,7.17
2022-10-10T07:02:41.538Z,7.28
2022-10-10T07:05:12.155Z,7.39
2022-10-10T07:07:40.444Z,7.54
2022-10-10T07:10:09.121Z,7.69
2022-10-10T07:12:43.534Z,7.83
2022-10-10T07:15:11.966Z,7.98
2022-10-10T07:17:38.812Z,8.08
2022-10-10T07:20:06.072Z,8.17
2022-10-10T07:22:33.290Z,8.26
2022-10-10T07:25:00.255Z,8.29
2022-10-10T07:27:27.338Z,8.43
2022-10-10T07:29:54.408Z,8.60
2022-10-10T07:32:21.383Z,8.75
2022-10-10T07:34:48.135Z,8.91
2022-10-10T07:37:15.067Z,9.04
2022-10-10T07:39:41.959Z,9.16
2022-10-10T07:42:08.747Z,9.16
2022-10-10T07:44:35.570Z,9.23
2022-10-10T07:47:02.310Z,9.36
2022-10-10T07:49:29.217Z,9.45
2022-10-10T07:51:58.872Z,9.53
2022-10-10T07:54:27.711Z,9.57
2022-10-10T07:56:54.513Z,9.56
2022-10-10T07:59:22.647Z,9.55
2022-10-10T08:01:50.497Z,9.57
2022-10-10T08:04:18.071Z,9.58
2022-10-10T08:06:44.823Z,9.63
2022-10-10T08:09:11.839Z,9.65
2022-10-10T08:11:38.742Z,9.69
2022-10-10T08:14:05.865Z,9.75
2022-10-10T08:16:32.800Z,9.85
2022-10-10T08:18:59.642Z,9.95
2022-10-10T08:21:26.601Z,10.07
2022-10-10T08:23:53.501Z,10.16
2022-10-10T08:26:20.488Z,10.30
2022-10-10T08:28:48.849Z,10.48
2022-10-10T08:31:19.304Z,10.67
2022-10-10T08:33:46.836Z,10.89
2022-10-10T08:36:16.292Z,11.05
2022-10-10T08:38:43.730Z,11.20
2022-10-10T08:41:35.062Z,11.42
2022-10-10T08:44:13.543Z,11.57
2022-10-10T08:46:50.509Z,11.64
2022-10-10T08:49:42.285Z,11.75
2022-10-10T08:52:30.006Z,11.98
2022-10-10T08:54:58.746Z,12.19
2022-10-10T08:58:06.174Z,12.38
2022-10-10T09:00:39.623Z,12.53
2022-10-10T09:03:20.900Z,12.59
2022-10-10T09:06:19.682Z,12.66
2022-10-10T09:09:17.735Z,12.75
2022-10-10T09:12:02.518Z,12.80
2022-10-10T09:14:35.287Z,12.78
2022-10-10T09:17:02.018Z,12.79
2022-10-10T09:19:43.039Z,12.85
2022-10-10T09:22:16.652Z,12.88
2022-10-10T09:24:43.766Z,12.91
2022-10-10T09:27:16.549Z,12.92
2022-10-10T09:29:52.953Z,12.96
2022-10-10T09:32:30.600Z,12.97
2022-10-10T09:35:12.822Z,13.01
2022-10-10T09:37:48.838Z,13.07
2022-10-10T09:40:30.345Z,13.07
2022-10-10T09:42:57.490Z,13.09
2022-10-10T09:45:52.475Z,13.09
2022-10-10T09:48:22.810Z,13.14
2022-10-10T09:50:49.778Z,13.19
2022-10-10T09:53:17.354Z,13.27
2022-10-10T09:55:46.589Z,13.38
2022-10-10T09:58:23.879Z,13.49
2022-10-10T10:00:51.284Z,13.59
2022-10-10T10:03:21.192Z,13.68
2022-10-10T10:06:00.522Z,13.78
2022-10-10T10:08:34.076Z,13.87
2022-10-10T10:11:02.492Z,13.93
2022-10-10T10:13:35.527Z,14.07
2022-10-10T10:16:06.997Z,14.16
2022-10-10T10:18:44.982Z,14.21
2022-10-10T10:21:23.653Z,14.32
2022-10-10T10:23:50.683Z,14.39
2022-10-10T10:26:22.720Z,14.36
2022-10-10T10:28:51.734Z,14.38
2022-10-10T10:31:46.190Z,14.44
2022-10-10T10:34:31.635Z,14.42
2022-10-10T10:37:40.661Z,14.46
2022-10-10T10:40:22.722Z,14.81
2022-10-10T10:43:01.645Z,14.84
2022-10-10T10:45:43.140Z,14.89
2022-10-10T10:48:29.402Z,14.97
2022-10-10T10:51:05.567Z,15.01
2022-10-10T10:53:49.261Z,15.09
2022-10-10T10:56:37.726Z,15.25
2022-10-10T11:02:31.219Z,15.25
2022-10-10T11:05:39.943Z,15.49
2022-10-10T11:08:28.895Z,16.08
2022-10-10T11:11:18.401Z,16.23
2022-10-10T11:13:51.187Z,16.14
2022-10-10T11:16:47.386Z,16.03
2022-10-10T11:19:13.941Z,16.00
2022-10-10T11:22:13.511Z,15.95
2022-10-10T11:24:46.015Z,15.88
2022-10-10T11:27:42.536Z,15.86
2022-10-10T11:30:21.182Z,15.97
2022-10-10T11:33:02.462Z,16.34
2022-10-10T11:35:38.293Z,16.52
2022-10-10T11:38:29.529Z,16.40
2022-10-10T11:41:05.939Z,16.40
2022-10-10T11:44:00.729Z,16.52
2022-10-10T11:46:36.952Z,16.50
2022-10-10T11:49:13.045Z,16.36
2022-10-10T11:51:46.566Z,16.22
2022-10-10T11:54:37.096Z,16.15
2022-10-10T11:57:12.886Z,16.09
2022-10-10T11:59:50.155Z,16.07
2022-10-10T12:02:24.498Z,16.04
2022-10-10T12:04:54.372Z,15.90
2022-10-10T12:07:31.168Z,15.86
2022-10-10T12:10:13.842Z,15.80
2022-10-10T12:12:46.212Z,15.68
2022-10-10T12:15:39.955Z,15.63
2022-10-10T12:18:25.277Z,15.57
2022-10-10T12:21:06.571Z,15.50
2022-10-10T12:23:33.769Z,15.45
2022-10-10T12:26:00.884Z,15.41
2022-10-10T12:28:54.649Z,15.33
2022-10-10T12:31:29.414Z,15.29
2022-10-10T12:34:29.813Z,15.30
2022-10-10T12:37:10.897Z,15.32
2022-10-10T12:39:39.733Z,15.27
2022-10-10T12:42:27.594Z,15.18
2022-10-10T12:44:54.503Z,15.13
2022-10-10T12:47:46.221Z,15.07
2022-10-10T12:50:41.839Z,15.01
2022-10-10T12:53:21.144Z,15.01
2022-10-10T12:55:56.554Z,15.02
2022-10-10T12:58:28.805Z,15.01
2022-10-10T13:01:00.859Z,14.99
2022-10-10T13:03:34.844Z,14.93
2022-10-10T13:06:24.540Z,14.87
2022-10-10T13:08:53.624Z,14.80
2022-10-10T13:11:20.455Z,14.74
2022-10-10T13:13:55.555Z,14.67
2022-10-10T13:16:27.673Z,14.63
2022-10-10T13:18:59.794Z,14.61
2022-10-10T13:21:29.113Z,14.63
2022-10-10T13:24:03.491Z,14.64
2022-10-10T13:26:40.429Z,14.63
2022-10-10T13:29:15.752Z,14.59
2022-10-10T13:31:43.570Z,14.55
2022-10-10T13:34:16.655Z,14.52
2022-10-10T13:36:43.735Z,14.51
2022-10-10T13:39:16.485Z,14.48
2022-10-10T13:41:47.749Z,14.47
2022-10-10T13:44:17.016Z,14.53
2022-10-10T13:46:43.816Z,14.58
2022-10-10T13:49:27.676Z,14.61
2022-10-10T13:52:06.372Z,14.52
2022-10-10T13:54:48.199Z,14.44
2022-10-10T13:57:27.111Z,14.22
2022-10-10T14:00:05.009Z,13.94
2022-10-10T14:02:34.595Z,13.81
2022-10-10T14:05:06.798Z,13.70
2022-10-10T14:07:34.547Z,13.58
2022-10-10T14:10:14.294Z,13.47
2022-10-10T14:12:52.143Z,13.36
2022-10-10T14:15:30.972Z,13.27
2022-10-10T14:17:57.728Z,13.23
2022-10-10T14:20:24.564Z,13.15
2022-10-10T14:22:52.016Z,13.11
2022-10-10T14:25:18.834Z,13.13
2022-10-10T14:27:45.865Z,13.15
2022-10-10T14:30:15.629Z,13.17
2022-10-10T14:32:42.337Z,13.28
2022-10-10T14:35:09.776Z,13.31
2022-10-10T14:37:38.737Z,13.31
2022-10-10T14:40:20.332Z,13.35
2022-10-10T14:42:47.710Z,13.34
2022-10-10T14:45:16.753Z,13.47
2022-10-10T14:47:43.484Z,13.56
2022-10-10T14:50:21.765Z,13.68
2022-10-10T14:52:48.439Z,13.76
2022-10-10T14:55:15.538Z,13.77
2022-10-10T14:57:42.335Z,13.78
2022-10-10T15:00:16.571Z,13.78
2022-10-10T15:02:45.590Z,13.83
2022-10-10T15:05:13.544Z,13.84
2022-10-10T15:07:40.660Z,13.85
2022-10-10T15:10:32.702Z,13.80
2022-10-10T15:12:55.726Z,13.77
2022-10-10T15:15:22.550Z,13.70
2022-10-10T15:17:49.957Z,13.70
2022-10-10T15:20:17.129Z,13.68
2022-10-10T15:22:46.131Z,13.66
2022-10-10T15:25:13.035Z,13.66
2022-10-10T15:27:39.840Z,13.63
2022-10-10T15:30:07.491Z,13.52
2022-10-10T15:32:38.005Z,13.38
2022-10-10T15:35:05.012Z,13.31
2022-10-10T15:37:31.764Z,13.20
2022-10-10T15:39:58.616Z,13.11
2022-10-10T15:42:25.506Z,13.03
2022-10-10T15:44:52.403Z,12.95
2022-10-10T15:47:20.469Z,12.86
2022-10-10T15:49:48.404Z,12.81
2022-10-10T15:52:15.371Z,12.75
2022-10-10T15:54:42.239Z,12.68
2022-10-10T15:57:09.058Z,12.65
2022-10-10T15:59:37.984Z,12.55
2022-10-10T16:02:07.394Z,12.46
2022-10-10T16:04:34.165Z,12.38
2022-10-10T16:09:47.766Z,12.28
2022-10-10T16:12:14.620Z,12.21
2022-10-10T16:14:41.331Z,12.12
2022-10-10T16:17:08.156Z,12.04
2022-10-10T16:19:35.022Z,11.99
2022-10-10T16:22:01.770Z,11.91
2022-10-10T16:24:28.561Z,11.83
2022-10-10T16:26:56.046Z,11.78
2022-10-10T16:29:22.816Z,11.73
2022-10-10T16:31:49.616Z,11.69
2022-10-10T16:34:17.506Z,11.63
2022-10-10T16:36:44.633Z,11.59
2022-10-10T16:39:12.887Z,11.52
2022-10-10T16:41:47.976Z,11.45
2022-10-10T16:44:16.071Z,11.38
2022-10-10T16:46:43.230Z,11.36
2022-10-10T16:49:13.062Z,11.31
2022-10-10T16:51:39.783Z,11.27
2022-10-10T16:54:06.706Z,11.23
2022-10-10T16:56:34.288Z,11.15
2022-10-10T16:59:01.812Z,11.09
2022-10-10T17:01:28.851Z,11.00
2022-10-10T17:03:59.131Z,10.92
2022-10-10T17:06:34.928Z,10.86
2022-10-10T17:09:02.996Z,10.78
2022-10-10T17:11:30.103Z,10.70
2022-10-10T17:13:56.933Z,10.64
2022-10-10T17:19:13.516Z,10.50
2022-10-10T17:21:40.463Z,10.44
2022-10-10T17:24:07.455Z,10.36
2022-10-10T17:26:34.247Z,10.30
2022-10-10T17:29:01.038Z,10.24
2022-10-10T17:31:28.466Z,10.18
2022-10-10T17:33:57.491Z,10.14
2022-10-10T17:36:26.140Z,10.08
2022-10-10T17:38:53.194Z,10.04
2022-10-10T17:41:21.193Z,9.98
2022-10-10T17:43:48.130Z,9.91
2022-10-10T17:46:37.741Z,9.86
2022-10-10T17:49:07.671Z,9.79
2022-10-10T17:51:36.096Z,9.73
2022-10-10T17:54:04.608Z,9.67
2022-10-10T17:56:32.254Z,9.59
2022-10-10T17:59:01.773Z,9.54
2022-10-10T18:01:31.056Z,9.48
2022-10-10T18:03:59.093Z,9.45
2022-10-10T18:06:26.149Z,9.39
2022-10-10T18:08:54.221Z,9.33
2022-10-10T18:11:24.029Z,9.29
2022-10-10T18:13:51.766Z,9.24
2022-10-10T18:16:22.276Z,9.21
2022-10-10T18:18:51.936Z,9.17
2022-10-10T18:21:23.389Z,9.10
2022-10-10T18:23:50.983Z,9.06
2022-10-10T18:26:21.059Z,9.02
2022-10-10T18:28:49.144Z,8.97
2022-10-10T18:31:19.350Z,8.92
2022-10-10T18:33:46.833Z,8.89
2022-10-10T18:36:16.756Z,8.86
2022-10-10T18:38:43.623Z,8.83
2022-10-10T18:41:13.741Z,8.77
2022-10-10T18:43:41.954Z,8.71
2022-10-10T18:46:11.147Z,8.68
2022-10-10T18:48:38.761Z,8.64
2022-10-10T18:51:09.114Z,8.59
2022-10-10T18:53:37.577Z,8.55
2022-10-10T18:56:05.273Z,8.53
2022-10-10T18:58:34.039Z,8.50
2022-10-10T19:01:03.522Z,8.46
2022-10-10T19:03:31.530Z,8.41
2022-10-10T19:05:58.859Z,8.37
2022-10-10T19:08:25.722Z,8.35
2022-10-10T19:10:52.602Z,8.30
2022-10-10T19:13:20.398Z,8.25
2022-10-10T19:15:49.996Z,8.24
2022-10-10T19:18:17.176Z,8.20
2022-10-10T19:20:44.432Z,8.13
2022-10-10T19:23:14.149Z,8.09
2022-10-10T19:25:43.255Z,8.05
2022-10-10T19:28:10.519Z,8.02
2022-10-10T19:30:42.789Z,7.98
2022-10-10T19:33:10.920Z,7.96
2022-10-10T19:35:40.141Z,7.95
2022-10-10T19:38:08.542Z,7.93
2022-10-10T19:40:43.068Z,7.92
2022-10-10T19:43:09.938Z,7.90
2022-10-10T19:45:44.588Z,7.87
2022-10-10T19:48:11.456Z,7.83
2022-10-10T19:50:40.096Z,7.82
2022-10-10T19:53:08.532Z,7.77
2022-10-10T19:55:35.583Z,7.74
2022-10-10T19:58:03.010Z,7.71
2022-10-10T20:00:29.887Z,7.69
2022-10-10T20:02:56.809Z,7.64
2022-10-10T20:05:23.931Z,7.59
2022-10-10T20:07:51.279Z,7.57
2022-10-10T20:10:19.112Z,7.55
2022-10-10T20:12:46.629Z,7.52
2022-10-10T20:15:13.525Z,7.51
2022-10-10T20:17:40.556Z,7.48
2022-10-10T20:20:08.020Z,7.46
2022-10-10T20:22:35.162Z,7.44
2022-10-10T20:25:02.163Z,7.43
2022-10-10T20:27:31.218Z,7.41
2022-10-10T20:29:58.860Z,7.39
2022-10-10T20:32:25.851Z,7.35
2022-10-10T20:34:52.671Z,7.30
2022-10-10T20:37:19.420Z,7.30
2022-10-10T20:39:46.754Z,7.27
2022-10-10T20:42:13.691Z,7.25
2022-10-10T20:44:40.652Z,7.23
2022-10-10T20:47:07.467Z,7.20
2022-10-10T20:49:35.067Z,7.19
2022-10-10T20:52:01.846Z,7.18
2022-10-10T20:54:28.735Z,7.17
2022-10-10T20:56:55.544Z,7.17
2022-10-10T20:59:24.630Z,7.15
2022-10-10T21:01:51.590Z,7.11
2022-10-10T21:04:18.611Z,7.08
2022-10-10T21:06:45.492Z,7.04
2022-10-10T21:09:15.011Z,7.03
2022-10-10T21:11:42.444Z,7.00
2022-10-10T21:14:10.923Z,6.97
2022-10-10T21:16:40.066Z,6.94
2022-10-10T21:19:09.407Z,6.92
2022-10-10T21:21:37.092Z,6.88
2022-10-10T21:24:05.914Z,6.85
2022-10-10T21:26:33.235Z,6.80
2022-10-10T21:29:01.307Z,6.76
2022-10-10T21:31:36.814Z,6.73
2022-10-10T21:34:07.681Z,6.69
2022-10-10T21:36:36.403Z,6.66
2022-10-10T21:39:06.763Z,6.64
2022-10-10T21:41:34.284Z,6.61
2022-10-10T21:44:01.084Z,6.59
2022-10-10T21:46:35.612Z,6.55
2022-10-10T21:49:06.530Z,6.51
2022-10-10T21:51:39.220Z,6.48
2022-10-10T21:54:06.519Z,6.45
2022-10-10T21:56:33.995Z,6.45
2022-10-10T21:59:01.591Z,6.45
2022-10-10T22:01:29.542Z,6.42
2022-10-10T22:03:56.594Z,6.41
2022-10-10T22:06:24.189Z,6.38
2022-10-10T22:08:52.544Z,6.35
2022-10-10T22:11:23.076Z,6.33
2022-10-10T22:13:50.865Z,6.32
2022-10-10T22:16:19.489Z,6.30
2022-10-10T22:18:46.260Z,6.28
2022-10-10T22:21:16.065Z,6.29
2022-10-10T22:23:44.146Z,6.26
2022-10-10T22:26:13.175Z,6.24
2022-10-10T22:28:40.227Z,6.22
2022-10-10T22:31:08.996Z,6.17
2022-10-10T22:33:35.844Z,6.19
2022-10-10T22:36:05.052Z,6.19
2022-10-10T22:38:32.405Z,6.16
2022-10-10T22:40:59.300Z,6.16
2022-10-10T22:43:27.092Z,6.14
2022-10-10T22:45:54.198Z,6.13
2022-10-10T22:48:21.050Z,6.12
2022-10-10T22:50:47.861Z,6.10
2022-10-10T22:53:14.682Z,6.07
2022-10-10T22:55:41.535Z,6.05
2022-10-10T22:58:08.295Z,6.03
2022-10-10T23:00:35.211Z,6.02
2022-10-10T23:03:02.018Z,6.00
2022-10-10T23:05:32.987Z,5.98
2022-10-10T23:07:59.811Z,5.96
2022-10-10T23:10:26.614Z,5.93
2022-10-10T23:12:53.427Z,5.93
2022-10-10T23:15:20.229Z,5.90
2022-10-10T23:17:46.956Z,5.86
2022-10-10T23:20:13.893Z,5.83
2022-10-10T23:22:40.727Z,5.80
2022-10-10T23:25:07.702Z,5.78
2022-10-10T23:27:35.751Z,5.75
2022-10-10T23:30:02.536Z,5.74
2022-10-10T23:32:30.458Z,5.72
2022-10-10T23:34:57.306Z,5.69
2022-10-10T23:37:25.411Z,5.66
2022-10-10T23:39:52.141Z,5.61
2022-10-10T23:42:18.907Z,5.59
2022-10-10T23:44:45.708Z,5.55
2022-10-10T23:47:12.574Z,5.53
2022-10-10T23:49:39.414Z,5.53
2022-10-10T23:52:06.158Z,5.50
2022-10-10T23:54:33.053Z,5.49
2022-10-10T23:57:00.092Z,5.47
2022-10-10T23:59:26.861Z,5.44
